sensor_id;sensor_type;location;lat;lon;timestamp;temperature;humidity
15638;DHT22;26604;53.596;10.042;2023-01-28T00:00:45;2.40;99.90
15638;DHT22;26604;53.596;10.042;2023-01-28T00:03:12;2.40;99.90
15638;DHT22;26604;53.596;10.042;2023-01-28T00:05:40;2.40;99.90
15638;DHT22;26604;53.596;10.042;2023-01-28T00:08:07;2.40;99.90
15638;DHT22;26604;53.596;10.042;2023-01-28T00:10:35;2.40;99.90
15638;DHT22;26604;53.596;10.042;2023-01-28T00:13:05;2.30;99.90
15638;DHT22;26604;53.596;10.042;2023-01-28T00:15:32;2.30;99.90
15638;DHT22;26604;53.596;10.042;2023-01-28T00:17:59;2.30;99.90
15638;DHT22;26604;53.596;10.042;2023-01-28T00:20:25;2.40;99.90
15638;DHT22;26604;53.596;10.042;2023-01-28T00:22:52;2.40;99.90
15638;DHT22;26604;53.596;10.042;2023-01-28T00:25:19;2.40;99.90
15638;DHT22;26604;53.596;10.042;2023-01-28T00:27:46;2.30;99.90
15638;DHT22;26604;53.596;10.042;2023-01-28T00:30:14;2.40;99.90
15638;DHT22;26604;53.596;10.042;2023-01-28T00:32:41;2.30;99.90
15638;DHT22;26604;53.596;10.042;2023-01-28T00:35:08;2.30;99.90
15638;DHT22;26604;53.596;10.042;2023-01-28T00:37:34;2.30;99.90
15638;DHT22;26604;53.596;10.042;2023-01-28T00:40:02;2.30;99.90
15638;DHT22;26604;53.596;10.042;2023-01-28T00:42:29;2.30;99.90
15638;DHT22;26604;53.596;10.042;2023-01-28T00:44:55;2.30;99.90
15638;DHT22;26604;53.596;10.042;2023-01-28T00:47:23;2.30;99.90
15638;DHT22;26604;53.596;10.042;2023-01-28T00:49:50;2.40;99.90
15638;DHT22;26604;53.596;10.042;2023-01-28T00:52:17;2.40;99.90
15638;DHT22;26604;53.596;10.042;2023-01-28T00:54:43;2.40;99.90
15638;DHT22;26604;53.596;10.042;2023-01-28T00:57:10;2.30;99.90
15638;DHT22;26604;53.596;10.042;2023-01-28T00:59:37;2.40;99.90
15638;DHT22;26604;53.596;10.042;2023-01-28T01:02:04;2.30;99.90
15638;DHT22;26604;53.596;10.042;2023-01-28T01:04:38;2.30;99.90
15638;DHT22;26604;53.596;10.042;2023-01-28T01:07:05;2.30;99.90
15638;DHT22;26604;53.596;10.042;2023-01-28T01:09:32;2.30;99.90
15638;DHT22;26604;53.596;10.042;2023-01-28T01:11:59;2.30;99.90
15638;DHT22;26604;53.596;10.042;2023-01-28T01:14:25;2.20;99.90
15638;DHT22;26604;53.596;10.042;2023-01-28T01:16:52;2.20;99.90
15638;DHT22;26604;53.596;10.042;2023-01-28T01:19:19;2.20;99.90
15638;DHT22;26604;53.596;10.042;2023-01-28T01:21:47;2.20;99.90
15638;DHT22;26604;53.596;10.042;2023-01-28T01:24:14;2.20;99.90
15638;DHT22;26604;53.596;10.042;2023-01-28T01:26:41;2.20;99.90
15638;DHT22;26604;53.596;10.042;2023-01-28T01:29:08;2.10;99.90
15638;DHT22;26604;53.596;10.042;2023-01-28T01:31:35;2.10;99.90
15638;DHT22;26604;53.596;10.042;2023-01-28T01:34:01;2.10;99.90
15638;DHT22;26604;53.596;10.042;2023-01-28T01:36:28;2.10;99.90
15638;DHT22;26604;53.596;10.042;2023-01-28T01:38:56;2.10;99.90
15638;DHT22;26604;53.596;10.042;2023-01-28T01:41:24;2.10;99.90
15638;DHT22;26604;53.596;10.042;2023-01-28T01:43:52;2.10;99.90
15638;DHT22;26604;53.596;10.042;2023-01-28T01:46:21;2.00;99.90
15638;DHT22;26604;53.596;10.042;2023-01-28T01:48:48;2.00;99.90
15638;DHT22;26604;53.596;10.042;2023-01-28T01:51:17;2.00;99.90
15638;DHT22;26604;53.596;10.042;2023-01-28T01:53:45;2.00;99.90
15638;DHT22;26604;53.596;10.042;2023-01-28T01:56:14;2.00;99.90
15638;DHT22;26604;53.596;10.042;2023-01-28T01:58:43;2.00;99.90
15638;DHT22;26604;53.596;10.042;2023-01-28T02:01:11;2.00;99.90
15638;DHT22;26604;53.596;10.042;2023-01-28T02:03:39;2.00;99.90
15638;DHT22;26604;53.596;10.042;2023-01-28T02:06:10;2.00;99.90
15638;DHT22;26604;53.596;10.042;2023-01-28T02:08:37;2.00;99.90
15638;DHT22;26604;53.596;10.042;2023-01-28T02:11:05;2.00;99.90
15638;DHT22;26604;53.596;10.042;2023-01-28T02:13:34;2.10;99.90
15638;DHT22;26604;53.596;10.042;2023-01-28T02:16:02;2.10;99.90
15638;DHT22;26604;53.596;10.042;2023-01-28T02:18:30;2.10;99.90
15638;DHT22;26604;53.596;10.042;2023-01-28T02:23:47;2.00;99.90
15638;DHT22;26604;53.596;10.042;2023-01-28T02:26:25;2.00;99.90
15638;DHT22;26604;53.596;10.042;2023-01-28T02:29:02;2.00;99.90
15638;DHT22;26604;53.596;10.042;2023-01-28T02:31:31;1.90;99.90
15638;DHT22;26604;53.596;10.042;2023-01-28T02:34:01;1.90;99.90
15638;DHT22;26604;53.596;10.042;2023-01-28T02:36:32;1.90;99.90
15638;DHT22;26604;53.596;10.042;2023-01-28T02:39:02;1.90;99.90
15638;DHT22;26604;53.596;10.042;2023-01-28T02:41:31;1.80;99.90
15638;DHT22;26604;53.596;10.042;2023-01-28T02:44:01;1.80;99.90
15638;DHT22;26604;53.596;10.042;2023-01-28T02:46:33;1.80;99.90
15638;DHT22;26604;53.596;10.042;2023-01-28T02:49:18;1.80;99.90
15638;DHT22;26604;53.596;10.042;2023-01-28T02:51:54;1.80;99.90
15638;DHT22;26604;53.596;10.042;2023-01-28T02:54:25;1.80;99.90
15638;DHT22;26604;53.596;10.042;2023-01-28T02:56:54;1.80;99.90
15638;DHT22;26604;53.596;10.042;2023-01-28T02:59:25;1.70;99.90
15638;DHT22;26604;53.596;10.042;2023-01-28T03:01:58;1.80;99.90
15638;DHT22;26604;53.596;10.042;2023-01-28T03:04:27;1.80;99.90
15638;DHT22;26604;53.596;10.042;2023-01-28T03:06:55;1.80;99.90
15638;DHT22;26604;53.596;10.042;2023-01-28T03:09:23;1.80;99.90
15638;DHT22;26604;53.596;10.042;2023-01-28T03:11:52;1.80;99.90
15638;DHT22;26604;53.596;10.042;2023-01-28T03:14:39;1.80;99.90
15638;DHT22;26604;53.596;10.042;2023-01-28T03:17:26;1.80;99.90
15638;DHT22;26604;53.596;10.042;2023-01-28T03:20:11;1.80;99.90
15638;DHT22;26604;53.596;10.042;2023-01-28T03:22:56;1.80;99.90
15638;DHT22;26604;53.596;10.042;2023-01-28T03:25:42;1.80;99.90
15638;DHT22;26604;53.596;10.042;2023-01-28T03:28:27;1.80;99.90
15638;DHT22;26604;53.596;10.042;2023-01-28T03:31:14;1.90;99.90
15638;DHT22;26604;53.596;10.042;2023-01-28T03:34:00;1.80;99.90
15638;DHT22;26604;53.596;10.042;2023-01-28T03:36:45;1.80;99.90
15638;DHT22;26604;53.596;10.042;2023-01-28T03:39:16;1.80;99.90
15638;DHT22;26604;53.596;10.042;2023-01-28T03:41:43;1.70;99.90
15638;DHT22;26604;53.596;10.042;2023-01-28T03:44:20;1.80;99.90
15638;DHT22;26604;53.596;10.042;2023-01-28T03:47:06;1.80;99.90
15638;DHT22;26604;53.596;10.042;2023-01-28T03:49:33;1.80;99.90
15638;DHT22;26604;53.596;10.042;2023-01-28T03:51:59;1.80;99.90
15638;DHT22;26604;53.596;10.042;2023-01-28T03:54:26;1.80;99.90
15638;DHT22;26604;53.596;10.042;2023-01-28T03:56:53;1.80;99.90
15638;DHT22;26604;53.596;10.042;2023-01-28T03:59:20;1.80;99.90
15638;DHT22;26604;53.596;10.042;2023-01-28T04:01:46;1.70;99.90
15638;DHT22;26604;53.596;10.042;2023-01-28T04:04:16;1.70;99.90
15638;DHT22;26604;53.596;10.042;2023-01-28T04:06:48;1.70;99.90
15638;DHT22;26604;53.596;10.042;2023-01-28T04:09:14;1.60;99.90
15638;DHT22;26604;53.596;10.042;2023-01-28T04:11:41;1.60;99.90
15638;DHT22;26604;53.596;10.042;2023-01-28T04:14:08;1.60;99.90
15638;DHT22;26604;53.596;10.042;2023-01-28T04:16:34;1.60;99.90
15638;DHT22;26604;53.596;10.042;2023-01-28T04:19:01;1.50;99.90
15638;DHT22;26604;53.596;10.042;2023-01-28T04:21:29;1.50;99.90
15638;DHT22;26604;53.596;10.042;2023-01-28T04:23:56;1.60;99.90
15638;DHT22;26604;53.596;10.042;2023-01-28T04:26:22;1.60;99.90
15638;DHT22;26604;53.596;10.042;2023-01-28T04:28:49;1.50;99.90
15638;DHT22;26604;53.596;10.042;2023-01-28T04:31:16;1.50;99.90
15638;DHT22;26604;53.596;10.042;2023-01-28T04:33:42;1.40;99.90
15638;DHT22;26604;53.596;10.042;2023-01-28T04:36:09;1.40;99.90
15638;DHT22;26604;53.596;10.042;2023-01-28T04:38:37;1.30;99.90
15638;DHT22;26604;53.596;10.042;2023-01-28T04:41:04;1.30;99.90
15638;DHT22;26604;53.596;10.042;2023-01-28T04:43:30;1.30;99.90
15638;DHT22;26604;53.596;10.042;2023-01-28T04:45:57;1.20;99.90
15638;DHT22;26604;53.596;10.042;2023-01-28T04:48:24;1.20;99.90
15638;DHT22;26604;53.596;10.042;2023-01-28T04:50:50;1.20;99.90
15638;DHT22;26604;53.596;10.042;2023-01-28T04:53:17;1.20;99.90
15638;DHT22;26604;53.596;10.042;2023-01-28T04:55:45;1.20;99.90
15638;DHT22;26604;53.596;10.042;2023-01-28T04:58:12;1.20;99.90
15638;DHT22;26604;53.596;10.042;2023-01-28T05:00:39;1.10;99.90
15638;DHT22;26604;53.596;10.042;2023-01-28T05:03:05;1.10;99.90
15638;DHT22;26604;53.596;10.042;2023-01-28T05:05:32;1.20;99.90
15638;DHT22;26604;53.596;10.042;2023-01-28T05:07:59;1.20;99.90
15638;DHT22;26604;53.596;10.042;2023-01-28T05:10:25;1.10;99.90
15638;DHT22;26604;53.596;10.042;2023-01-28T05:12:54;1.10;99.90
15638;DHT22;26604;53.596;10.042;2023-01-28T05:15:20;1.10;99.90
15638;DHT22;26604;53.596;10.042;2023-01-28T05:17:47;1.00;99.90
15638;DHT22;26604;53.596;10.042;2023-01-28T05:20:14;1.00;99.90
15638;DHT22;26604;53.596;10.042;2023-01-28T05:22:41;0.90;99.90
15638;DHT22;26604;53.596;10.042;2023-01-28T05:25:08;0.90;99.90
15638;DHT22;26604;53.596;10.042;2023-01-28T05:27:35;0.80;99.90
15638;DHT22;26604;53.596;10.042;2023-01-28T05:30:03;0.70;99.90
15638;DHT22;26604;53.596;10.042;2023-01-28T05:32:30;0.60;99.90
15638;DHT22;26604;53.596;10.042;2023-01-28T05:34:57;0.50;99.90
15638;DHT22;26604;53.596;10.042;2023-01-28T05:37:24;0.50;99.90
15638;DHT22;26604;53.596;10.042;2023-01-28T05:39:50;0.30;99.90
15638;DHT22;26604;53.596;10.042;2023-01-28T05:42:17;0.30;99.90
15638;DHT22;26604;53.596;10.042;2023-01-28T05:44:45;0.30;99.90
15638;DHT22;26604;53.596;10.042;2023-01-28T05:47:13;0.30;99.90
15638;DHT22;26604;53.596;10.042;2023-01-28T05:49:39;0.30;99.90
15638;DHT22;26604;53.596;10.042;2023-01-28T05:52:06;0.20;99.90
15638;DHT22;26604;53.596;10.042;2023-01-28T05:54:33;0.10;99.90
15638;DHT22;26604;53.596;10.042;2023-01-28T05:56:59;0.10;99.90
15638;DHT22;26604;53.596;10.042;2023-01-28T05:59:26;0.00;99.90
15638;DHT22;26604;53.596;10.042;2023-01-28T06:01:53;0.00;99.90
15638;DHT22;26604;53.596;10.042;2023-01-28T06:04:21;-0.10;99.90
15638;DHT22;26604;53.596;10.042;2023-01-28T06:06:47;-0.20;99.90
15638;DHT22;26604;53.596;10.042;2023-01-28T06:09:14;-0.20;99.90
15638;DHT22;26604;53.596;10.042;2023-01-28T06:11:41;-0.20;99.90
15638;DHT22;26604;53.596;10.042;2023-01-28T06:14:08;-0.30;99.90
15638;DHT22;26604;53.596;10.042;2023-01-28T06:16:35;-0.30;99.90
15638;DHT22;26604;53.596;10.042;2023-01-28T06:19:02;-0.40;99.90
15638;DHT22;26604;53.596;10.042;2023-01-28T06:21:30;-0.40;99.90
15638;DHT22;26604;53.596;10.042;2023-01-28T06:23:56;-0.40;99.90
15638;DHT22;26604;53.596;10.042;2023-01-28T06:26:23;-0.40;99.90
15638;DHT22;26604;53.596;10.042;2023-01-28T06:28:50;-0.50;99.90
15638;DHT22;26604;53.596;10.042;2023-01-28T06:31:16;-0.50;99.90
15638;DHT22;26604;53.596;10.042;2023-01-28T06:33:43;-0.50;99.90
15638;DHT22;26604;53.596;10.042;2023-01-28T06:36:10;-0.60;99.90
15638;DHT22;26604;53.596;10.042;2023-01-28T06:38:38;-0.60;99.90
15638;DHT22;26604;53.596;10.042;2023-01-28T06:41:05;-0.60;99.90
15638;DHT22;26604;53.596;10.042;2023-01-28T06:43:31;-0.70;99.90
15638;DHT22;26604;53.596;10.042;2023-01-28T06:45:58;-0.70;99.90
15638;DHT22;26604;53.596;10.042;2023-01-28T06:48:25;-0.70;99.90
15638;DHT22;26604;53.596;10.042;2023-01-28T06:50:52;0.60;99.90
15638;DHT22;26604;53.596;10.042;2023-01-28T06:53:19;-0.80;99.90
15638;DHT22;26604;53.596;10.042;2023-01-28T06:55:47;-0.90;99.90
15638;DHT22;26604;53.596;10.042;2023-01-28T06:58:14;-1.00;99.90
15638;DHT22;26604;53.596;10.042;2023-01-28T07:00:40;-1.00;99.90
15638;DHT22;26604;53.596;10.042;2023-01-28T07:03:07;-1.00;99.90
15638;DHT22;26604;53.596;10.042;2023-01-28T07:05:34;-1.00;99.90
15638;DHT22;26604;53.596;10.042;2023-01-28T07:08:00;-0.90;99.90
15638;DHT22;26604;53.596;10.042;2023-01-28T07:10:27;-0.80;99.90
15638;DHT22;26604;53.596;10.042;2023-01-28T07:12:55;-0.70;99.90
15638;DHT22;26604;53.596;10.042;2023-01-28T07:15:22;-0.60;99.90
15638;DHT22;26604;53.596;10.042;2023-01-28T07:17:49;-0.50;99.90
15638;DHT22;26604;53.596;10.042;2023-01-28T07:20:16;-0.40;99.90
15638;DHT22;26604;53.596;10.042;2023-01-28T07:22:43;-0.40;99.90
15638;DHT22;26604;53.596;10.042;2023-01-28T07:25:10;-0.40;99.90
15638;DHT22;26604;53.596;10.042;2023-01-28T07:27:37;-0.30;99.90
15638;DHT22;26604;53.596;10.042;2023-01-28T07:30:06;-0.30;99.90
15638;DHT22;26604;53.596;10.042;2023-01-28T07:32:33;-0.30;99.90
15638;DHT22;26604;53.596;10.042;2023-01-28T07:34:59;-0.30;99.90
15638;DHT22;26604;53.596;10.042;2023-01-28T07:37:26;-0.40;99.90
15638;DHT22;26604;53.596;10.042;2023-01-28T07:39:53;-0.30;99.90
15638;DHT22;26604;53.596;10.042;2023-01-28T07:42:19;-0.30;99.90
15638;DHT22;26604;53.596;10.042;2023-01-28T07:44:46;-0.30;99.90
15638;DHT22;26604;53.596;10.042;2023-01-28T07:47:15;-0.40;99.90
15638;DHT22;26604;53.596;10.042;2023-01-28T07:49:42;-0.40;99.90
15638;DHT22;26604;53.596;10.042;2023-01-28T07:52:08;-0.40;99.90
15638;DHT22;26604;53.596;10.042;2023-01-28T07:54:35;-0.50;99.90
15638;DHT22;26604;53.596;10.042;2023-01-28T07:57:06;-0.50;99.90
15638;DHT22;26604;53.596;10.042;2023-01-28T07:59:34;-0.50;99.90
15638;DHT22;26604;53.596;10.042;2023-01-28T08:02:00;-0.40;99.90
15638;DHT22;26604;53.596;10.042;2023-01-28T08:04:29;-0.40;99.90
15638;DHT22;26604;53.596;10.042;2023-01-28T08:06:56;-0.40;99.90
15638;DHT22;26604;53.596;10.042;2023-01-28T08:09:22;-0.40;99.90
15638;DHT22;26604;53.596;10.042;2023-01-28T08:11:49;-0.50;99.90
15638;DHT22;26604;53.596;10.042;2023-01-28T08:14:16;-0.50;99.90
15638;DHT22;26604;53.596;10.042;2023-01-28T08:16:43;-0.50;99.90
15638;DHT22;26604;53.596;10.042;2023-01-28T08:19:10;-0.50;99.90
15638;DHT22;26604;53.596;10.042;2023-01-28T08:21:38;-0.60;99.90
15638;DHT22;26604;53.596;10.042;2023-01-28T08:24:05;-0.60;99.90
15638;DHT22;26604;53.596;10.042;2023-01-28T08:26:31;-0.60;99.90
15638;DHT22;26604;53.596;10.042;2023-01-28T08:28:58;-0.60;99.90
15638;DHT22;26604;53.596;10.042;2023-01-28T08:31:25;-0.60;99.90
15638;DHT22;26604;53.596;10.042;2023-01-28T08:33:53;-0.50;99.90
15638;DHT22;26604;53.596;10.042;2023-01-28T08:36:20;-0.50;99.90
15638;DHT22;26604;53.596;10.042;2023-01-28T08:38:51;-0.40;99.90
15638;DHT22;26604;53.596;10.042;2023-01-28T08:41:19;-0.40;99.90
15638;DHT22;26604;53.596;10.042;2023-01-28T08:43:45;-0.40;99.90
15638;DHT22;26604;53.596;10.042;2023-01-28T08:46:12;-0.30;99.90
15638;DHT22;26604;53.596;10.042;2023-01-28T08:48:39;-0.10;99.90
15638;DHT22;26604;53.596;10.042;2023-01-28T08:51:06;-0.20;99.90
15638;DHT22;26604;53.596;10.042;2023-01-28T08:53:33;-0.10;99.90
15638;DHT22;26604;53.596;10.042;2023-01-28T08:56:01;-0.10;99.90
15638;DHT22;26604;53.596;10.042;2023-01-28T08:58:27;0.00;99.90
15638;DHT22;26604;53.596;10.042;2023-01-28T09:00:54;0.00;99.90
15638;DHT22;26604;53.596;10.042;2023-01-28T09:03:21;0.10;99.90
15638;DHT22;26604;53.596;10.042;2023-01-28T09:05:47;0.20;99.90
15638;DHT22;26604;53.596;10.042;2023-01-28T09:08:14;0.30;99.90
15638;DHT22;26604;53.596;10.042;2023-01-28T09:10:41;0.40;99.90
15638;DHT22;26604;53.596;10.042;2023-01-28T09:13:10;0.50;99.90
15638;DHT22;26604;53.596;10.042;2023-01-28T09:15:38;0.60;99.90
15638;DHT22;26604;53.596;10.042;2023-01-28T09:18:05;0.70;99.90
15638;DHT22;26604;53.596;10.042;2023-01-28T09:20:32;0.80;99.90
15638;DHT22;26604;53.596;10.042;2023-01-28T09:22:59;0.90;99.90
15638;DHT22;26604;53.596;10.042;2023-01-28T09:25:26;1.00;99.90
15638;DHT22;26604;53.596;10.042;2023-01-28T09:27:52;1.10;99.90
15638;DHT22;26604;53.596;10.042;2023-01-28T09:30:20;1.10;99.90
15638;DHT22;26604;53.596;10.042;2023-01-28T09:32:48;1.20;99.90
15638;DHT22;26604;53.596;10.042;2023-01-28T09:35:15;1.20;99.90
15638;DHT22;26604;53.596;10.042;2023-01-28T09:37:42;1.30;99.90
15638;DHT22;26604;53.596;10.042;2023-01-28T09:40:10;1.30;99.90
15638;DHT22;26604;53.596;10.042;2023-01-28T09:42:45;1.30;99.90
15638;DHT22;26604;53.596;10.042;2023-01-28T09:45:16;1.40;99.90
15638;DHT22;26604;53.596;10.042;2023-01-28T09:47:50;1.40;99.90
15638;DHT22;26604;53.596;10.042;2023-01-28T09:50:17;1.50;99.90
15638;DHT22;26604;53.596;10.042;2023-01-28T09:52:45;1.60;99.90
15638;DHT22;26604;53.596;10.042;2023-01-28T09:55:14;1.70;99.90
15638;DHT22;26604;53.596;10.042;2023-01-28T09:57:45;1.80;99.90
15638;DHT22;26604;53.596;10.042;2023-01-28T10:00:14;1.80;99.90
15638;DHT22;26604;53.596;10.042;2023-01-28T10:02:54;1.90;99.90
15638;DHT22;26604;53.596;10.042;2023-01-28T10:05:25;1.90;99.90
15638;DHT22;26604;53.596;10.042;2023-01-28T10:07:56;2.10;99.90
15638;DHT22;26604;53.596;10.042;2023-01-28T10:10:28;2.20;99.90
15638;DHT22;26604;53.596;10.042;2023-01-28T10:13:03;2.30;99.90
15638;DHT22;26604;53.596;10.042;2023-01-28T10:15:49;2.40;99.90
15638;DHT22;26604;53.596;10.042;2023-01-28T10:18:20;2.50;99.90
15638;DHT22;26604;53.596;10.042;2023-01-28T10:20:50;2.60;99.90
15638;DHT22;26604;53.596;10.042;2023-01-28T10:23:18;2.80;99.90
15638;DHT22;26604;53.596;10.042;2023-01-28T10:25:47;3.00;99.90
15638;DHT22;26604;53.596;10.042;2023-01-28T10:28:17;3.10;99.90
15638;DHT22;26604;53.596;10.042;2023-01-28T10:30:44;3.10;99.90
15638;DHT22;26604;53.596;10.042;2023-01-28T10:33:14;3.20;99.90
15638;DHT22;26604;53.596;10.042;2023-01-28T10:35:43;3.30;99.90
15638;DHT22;26604;53.596;10.042;2023-01-28T10:38:13;3.30;99.90
15638;DHT22;26604;53.596;10.042;2023-01-28T10:40:41;3.30;99.90
15638;DHT22;26604;53.596;10.042;2023-01-28T10:43:08;3.30;99.90
15638;DHT22;26604;53.596;10.042;2023-01-28T10:45:36;3.30;99.90
15638;DHT22;26604;53.596;10.042;2023-01-28T10:48:06;3.30;99.90
15638;DHT22;26604;53.596;10.042;2023-01-28T10:50:34;3.20;99.90
15638;DHT22;26604;53.596;10.042;2023-01-28T10:53:02;3.20;99.90
15638;DHT22;26604;53.596;10.042;2023-01-28T10:55:33;3.30;99.90
15638;DHT22;26604;53.596;10.042;2023-01-28T10:58:01;3.20;99.90
15638;DHT22;26604;53.596;10.042;2023-01-28T11:00:33;3.00;99.90
15638;DHT22;26604;53.596;10.042;2023-01-28T11:03:00;2.90;99.90
15638;DHT22;26604;53.596;10.042;2023-01-28T11:05:27;2.90;99.90
15638;DHT22;26604;53.596;10.042;2023-01-28T11:08:09;2.80;99.90
15638;DHT22;26604;53.596;10.042;2023-01-28T11:10:37;2.70;99.90
15638;DHT22;26604;53.596;10.042;2023-01-28T11:13:05;2.70;99.90
15638;DHT22;26604;53.596;10.042;2023-01-28T11:15:32;2.70;99.90
15638;DHT22;26604;53.596;10.042;2023-01-28T11:17:59;2.70;99.90
15638;DHT22;26604;53.596;10.042;2023-01-28T11:20:29;2.70;99.90
15638;DHT22;26604;53.596;10.042;2023-01-28T11:22:57;2.80;99.90
15638;DHT22;26604;53.596;10.042;2023-01-28T11:25:27;2.90;99.90
15638;DHT22;26604;53.596;10.042;2023-01-28T11:27:54;3.00;99.90
15638;DHT22;26604;53.596;10.042;2023-01-28T11:30:22;3.20;99.90
15638;DHT22;26604;53.596;10.042;2023-01-28T11:32:56;3.30;99.90
15638;DHT22;26604;53.596;10.042;2023-01-28T11:35:25;3.50;99.90
15638;DHT22;26604;53.596;10.042;2023-01-28T11:37:54;3.70;99.90
15638;DHT22;26604;53.596;10.042;2023-01-28T11:40:21;3.90;99.90
15638;DHT22;26604;53.596;10.042;2023-01-28T11:42:50;3.90;99.90
15638;DHT22;26604;53.596;10.042;2023-01-28T11:45:18;4.00;99.90
15638;DHT22;26604;53.596;10.042;2023-01-28T11:47:58;4.00;99.90
15638;DHT22;26604;53.596;10.042;2023-01-28T11:50:30;3.80;99.90
15638;DHT22;26604;53.596;10.042;2023-01-28T11:53:06;3.80;99.90
15638;DHT22;26604;53.596;10.042;2023-01-28T11:55:44;3.70;99.90
15638;DHT22;26604;53.596;10.042;2023-01-28T11:58:19;3.60;99.90
15638;DHT22;26604;53.596;10.042;2023-01-28T12:00:47;3.50;99.90
15638;DHT22;26604;53.596;10.042;2023-01-28T12:03:22;3.40;99.90
15638;DHT22;26604;53.596;10.042;2023-01-28T12:05:52;3.40;99.90
15638;DHT22;26604;53.596;10.042;2023-01-28T12:08:21;3.30;99.90
15638;DHT22;26604;53.596;10.042;2023-01-28T12:11:02;3.50;99.90
15638;DHT22;26604;53.596;10.042;2023-01-28T12:13:38;3.50;99.90
15638;DHT22;26604;53.596;10.042;2023-01-28T12:16:09;3.50;99.90
15638;DHT22;26604;53.596;10.042;2023-01-28T12:18:49;3.50;99.90
15638;DHT22;26604;53.596;10.042;2023-01-28T12:21:20;3.50;99.90
15638;DHT22;26604;53.596;10.042;2023-01-28T12:23:55;3.50;99.90
15638;DHT22;26604;53.596;10.042;2023-01-28T12:26:25;3.60;99.90
15638;DHT22;26604;53.596;10.042;2023-01-28T12:29:03;3.60;99.90
15638;DHT22;26604;53.596;10.042;2023-01-28T12:31:37;3.60;99.90
15638;DHT22;26604;53.596;10.042;2023-01-28T12:34:18;3.60;99.90
15638;DHT22;26604;53.596;10.042;2023-01-28T12:36:51;3.60;99.90
15638;DHT22;26604;53.596;10.042;2023-01-28T12:39:24;3.70;99.90
15638;DHT22;26604;53.596;10.042;2023-01-28T12:41:54;3.90;99.90
15638;DHT22;26604;53.596;10.042;2023-01-28T12:44:27;4.10;99.90
15638;DHT22;26604;53.596;10.042;2023-01-28T12:46:56;4.40;99.90
15638;DHT22;26604;53.596;10.042;2023-01-28T12:49:24;4.50;99.90
15638;DHT22;26604;53.596;10.042;2023-01-28T12:51:56;4.50;99.90
15638;DHT22;26604;53.596;10.042;2023-01-28T12:54:25;4.50;99.90
15638;DHT22;26604;53.596;10.042;2023-01-28T12:56:53;4.60;99.90
15638;DHT22;26604;53.596;10.042;2023-01-28T12:59:21;4.40;99.90
15638;DHT22;26604;53.596;10.042;2023-01-28T13:01:53;4.40;99.90
15638;DHT22;26604;53.596;10.042;2023-01-28T13:04:23;4.40;99.90
15638;DHT22;26604;53.596;10.042;2023-01-28T13:06:53;4.30;99.90
15638;DHT22;26604;53.596;10.042;2023-01-28T13:09:21;4.30;99.90
15638;DHT22;26604;53.596;10.042;2023-01-28T13:11:50;4.20;99.90
15638;DHT22;26604;53.596;10.042;2023-01-28T13:14:17;4.10;99.90
15638;DHT22;26604;53.596;10.042;2023-01-28T13:16:45;3.90;99.90
15638;DHT22;26604;53.596;10.042;2023-01-28T13:19:22;3.70;99.90
15638;DHT22;26604;53.596;10.042;2023-01-28T13:21:49;3.60;99.90
15638;DHT22;26604;53.596;10.042;2023-01-28T13:24:20;3.40;99.90
15638;DHT22;26604;53.596;10.042;2023-01-28T13:26:48;3.30;99.90
15638;DHT22;26604;53.596;10.042;2023-01-28T13:29:19;3.30;99.90
15638;DHT22;26604;53.596;10.042;2023-01-28T13:31:47;3.20;99.90
15638;DHT22;26604;53.596;10.042;2023-01-28T13:34:26;3.20;99.90
15638;DHT22;26604;53.596;10.042;2023-01-28T13:36:54;3.30;99.90
15638;DHT22;26604;53.596;10.042;2023-01-28T13:39:21;3.30;99.90
15638;DHT22;26604;53.596;10.042;2023-01-28T13:41:50;3.40;99.90
15638;DHT22;26604;53.596;10.042;2023-01-28T13:44:18;3.60;99.90
15638;DHT22;26604;53.596;10.042;2023-01-28T13:46:44;3.70;99.90
15638;DHT22;26604;53.596;10.042;2023-01-28T13:49:12;3.70;99.90
15638;DHT22;26604;53.596;10.042;2023-01-28T13:51:43;3.90;99.90
15638;DHT22;26604;53.596;10.042;2023-01-28T13:54:13;3.90;99.90
15638;DHT22;26604;53.596;10.042;2023-01-28T13:56:56;3.90;99.90
15638;DHT22;26604;53.596;10.042;2023-01-28T13:59:37;4.00;99.90
15638;DHT22;26604;53.596;10.042;2023-01-28T14:02:19;4.00;99.90
15638;DHT22;26604;53.596;10.042;2023-01-28T14:05:01;4.00;99.90
15638;DHT22;26604;53.596;10.042;2023-01-28T14:07:35;3.90;99.90
15638;DHT22;26604;53.596;10.042;2023-01-28T14:10:11;3.80;99.90
15638;DHT22;26604;53.596;10.042;2023-01-28T14:12:52;3.80;99.90
15638;DHT22;26604;53.596;10.042;2023-01-28T14:18:09;3.80;99.90
15638;DHT22;26604;53.596;10.042;2023-01-28T14:20:41;3.80;99.90
15638;DHT22;26604;53.596;10.042;2023-01-28T14:23:15;3.80;99.90
15638;DHT22;26604;53.596;10.042;2023-01-28T14:25:45;3.70;99.90
15638;DHT22;26604;53.596;10.042;2023-01-28T14:28:16;3.70;99.90
15638;DHT22;26604;53.596;10.042;2023-01-28T14:30:46;3.70;99.90
15638;DHT22;26604;53.596;10.042;2023-01-28T14:33:15;3.70;99.90
15638;DHT22;26604;53.596;10.042;2023-01-28T14:35:43;3.70;99.90
15638;DHT22;26604;53.596;10.042;2023-01-28T14:38:11;3.60;99.90
15638;DHT22;26604;53.596;10.042;2023-01-28T14:40:40;3.60;99.90
15638;DHT22;26604;53.596;10.042;2023-01-28T14:43:11;3.60;99.90
15638;DHT22;26604;53.596;10.042;2023-01-28T14:45:45;3.60;99.90
15638;DHT22;26604;53.596;10.042;2023-01-28T14:48:19;3.60;99.90
15638;DHT22;26604;53.596;10.042;2023-01-28T14:50:52;3.60;99.90
15638;DHT22;26604;53.596;10.042;2023-01-28T14:56:07;3.60;99.90
15638;DHT22;26604;53.596;10.042;2023-01-28T14:58:39;3.60;99.90
15638;DHT22;26604;53.596;10.042;2023-01-28T15:01:17;3.60;99.90
15638;DHT22;26604;53.596;10.042;2023-01-28T15:03:44;3.60;99.90
15638;DHT22;26604;53.596;10.042;2023-01-28T15:06:12;3.60;99.90
15638;DHT22;26604;53.596;10.042;2023-01-28T15:08:39;3.60;99.90
15638;DHT22;26604;53.596;10.042;2023-01-28T15:11:07;3.60;99.90
15638;DHT22;26604;53.596;10.042;2023-01-28T15:13:35;3.60;99.90
15638;DHT22;26604;53.596;10.042;2023-01-28T15:16:03;3.50;99.90
15638;DHT22;26604;53.596;10.042;2023-01-28T15:18:31;3.50;99.90
15638;DHT22;26604;53.596;10.042;2023-01-28T15:20:58;3.50;99.90
15638;DHT22;26604;53.596;10.042;2023-01-28T15:23:26;3.40;99.90
15638;DHT22;26604;53.596;10.042;2023-01-28T15:25:54;3.40;99.90
15638;DHT22;26604;53.596;10.042;2023-01-28T15:28:23;3.40;99.90
15638;DHT22;26604;53.596;10.042;2023-01-28T15:30:50;3.30;99.90
15638;DHT22;26604;53.596;10.042;2023-01-28T15:33:19;3.30;99.90
15638;DHT22;26604;53.596;10.042;2023-01-28T15:35:46;3.20;99.90
15638;DHT22;26604;53.596;10.042;2023-01-28T15:38:13;3.20;99.90
15638;DHT22;26604;53.596;10.042;2023-01-28T15:40:42;3.20;99.90
15638;DHT22;26604;53.596;10.042;2023-01-28T15:43:16;3.20;99.90
15638;DHT22;26604;53.596;10.042;2023-01-28T15:45:45;3.20;99.90
15638;DHT22;26604;53.596;10.042;2023-01-28T15:48:14;3.10;99.90